createdAt,value
2022-10-17T00:00:25.417Z,0
2022-10-17T00:01:25.756Z,0
2022-10-17T00:02:25.406Z,0
2022-10-17T00:03:28.461Z,0
2022-10-17T00:04:25.571Z,0
2022-10-17T00:05:25.419Z,0
2022-10-17T00:06:25.389Z,0
2022-10-17T00:07:25.689Z,0
2022-10-17T00:08:28.545Z,0
2022-10-17T00:09:25.386Z,0
2022-10-17T00:10:25.416Z,0
2022-10-17T00:11:25.420Z,0
2022-10-17T00:12:25.400Z,0
2022-10-17T00:13:25.661Z,0
2022-10-17T00:14:28.545Z,0
2022-10-17T00:15:25.454Z,0
2022-10-17T00:16:25.420Z,0
2022-10-17T00:17:25.637Z,0
2022-10-17T00:18:25.476Z,0
2022-10-17T00:19:28.225Z,0
2022-10-17T00:20:25.451Z,0
2022-10-17T00:21:25.408Z,0
2022-10-17T00:22:25.560Z,0
2022-10-17T00:23:25.439Z,0
2022-10-17T00:24:25.484Z,0
2022-10-17T00:25:28.225Z,0
2022-10-17T00:26:25.461Z,0
2022-10-17T00:27:25.768Z,0
2022-10-17T00:28:25.578Z,0
2022-10-17T00:29:25.499Z,0
2022-10-17T00:30:28.254Z,0
2022-10-17T00:31:25.429Z,0
2022-10-17T00:32:26.808Z,0
2022-10-17T00:33:25.467Z,0
2022-10-17T00:34:28.530Z,0
2022-10-17T00:35:25.470Z,0
2022-10-17T00:36:28.318Z,0
2022-10-17T00:37:25.434Z,0
2022-10-17T00:38:25.442Z,0
2022-10-17T00:39:25.281Z,0
2022-10-17T00:40:25.493Z,0
2022-10-17T00:41:28.478Z,0
2022-10-17T00:42:25.587Z,0
2022-10-17T00:43:25.470Z,0
2022-10-17T00:44:25.436Z,0
2022-10-17T00:45:25.641Z,0
2022-10-17T00:46:25.464Z,0
2022-10-17T00:47:28.527Z,0
2022-10-17T00:48:30.234Z,0
2022-10-17T00:49:25.486Z,0
2022-10-17T00:50:25.481Z,0
2022-10-17T00:51:25.454Z,0
2022-10-17T00:52:27.047Z,0
2022-10-17T00:53:25.489Z,0
2022-10-17T00:54:25.481Z,0
2022-10-17T00:55:25.488Z,0
2022-10-17T00:56:25.674Z,0
2022-10-17T00:57:25.453Z,0
2022-10-17T00:58:29.292Z,0
2022-10-17T00:59:25.500Z,0
2022-10-17T01:00:25.483Z,0
2022-10-17T01:01:25.808Z,0
2022-10-17T01:02:25.569Z,0
2022-10-17T01:03:28.274Z,0
2022-10-17T01:04:25.521Z,0
2022-10-17T01:05:25.526Z,0
2022-10-17T01:06:25.504Z,0
2022-10-17T01:07:25.489Z,0
2022-10-17T01:08:25.335Z,0
2022-10-17T01:09:28.501Z,0
2022-10-17T01:10:25.699Z,0
2022-10-17T01:11:25.516Z,0
2022-10-17T01:12:25.652Z,0
2022-10-17T01:13:25.524Z,0
2022-10-17T01:14:28.534Z,0
2022-10-17T01:15:25.513Z,0
2022-10-17T01:16:25.495Z,0
2022-10-17T01:17:25.521Z,0
2022-10-17T01:18:25.503Z,0
2022-10-17T01:19:26.764Z,0
2022-10-17T01:20:25.588Z,0
2022-10-17T01:21:25.526Z,0
2022-10-17T01:22:25.686Z,0
2022-10-17T01:23:25.583Z,0
2022-10-17T01:24:25.536Z,0
2022-10-17T01:25:28.291Z,0
2022-10-17T01:26:25.522Z,0
2022-10-17T01:27:28.327Z,0
2022-10-17T01:28:25.971Z,0
2022-10-17T01:29:25.544Z,0
2022-10-17T01:30:25.696Z,0
2022-10-17T01:31:26.573Z,0
2022-10-17T01:32:25.829Z,0
2022-10-17T01:33:25.570Z,0
2022-10-17T01:34:25.759Z,0
2022-10-17T01:35:25.572Z,0
2022-10-17T01:36:25.546Z,0
2022-10-17T01:37:25.632Z,0
2022-10-17T01:38:25.562Z,0
2022-10-17T01:39:29.415Z,0
2022-10-17T01:40:25.613Z,0
2022-10-17T01:41:28.552Z,0
2022-10-17T01:42:25.818Z,0
2022-10-17T01:43:25.541Z,0
2022-10-17T01:44:25.541Z,0
2022-10-17T01:45:25.590Z,0
2022-10-17T01:46:25.615Z,0
2022-10-17T01:47:29.512Z,0
2022-10-17T01:48:25.545Z,0
2022-10-17T01:49:25.595Z,0
2022-10-17T01:50:25.573Z,0
2022-10-17T01:51:25.573Z,0
2022-10-17T01:52:28.417Z,0
2022-10-17T01:53:25.596Z,0
2022-10-17T01:54:25.589Z,0
2022-10-17T01:55:25.634Z,0
2022-10-17T01:56:25.721Z,0
2022-10-17T01:57:29.234Z,0
2022-10-17T01:58:25.563Z,0
2022-10-17T01:59:30.101Z,0
2022-10-17T02:00:25.618Z,0
2022-10-17T02:01:26.026Z,0
2022-10-17T02:02:25.591Z,0
2022-10-17T02:03:28.430Z,0
2022-10-17T02:04:25.581Z,0
2022-10-17T02:05:25.641Z,0
2022-10-17T02:06:25.588Z,0
2022-10-17T02:07:26.081Z,0
2022-10-17T02:08:26.725Z,0
2022-10-17T02:09:25.645Z,0
2022-10-17T02:10:25.630Z,0
2022-10-17T02:11:25.821Z,0
2022-10-17T02:12:25.626Z,0
2022-10-17T02:13:28.507Z,0
2022-10-17T02:14:28.430Z,0
2022-10-17T02:15:25.636Z,0
2022-10-17T02:16:25.601Z,0
2022-10-17T02:17:28.990Z,0
2022-10-17T02:18:25.624Z,0
2022-10-17T02:19:30.478Z,0
2022-10-17T02:20:25.634Z,0
2022-10-17T02:21:25.663Z,0
2022-10-17T02:22:25.612Z,0
2022-10-17T02:23:25.663Z,0
2022-10-17T02:24:28.771Z,0
2022-10-17T02:25:32.934Z,0
2022-10-17T02:26:25.634Z,0
2022-10-17T02:27:25.764Z,0
2022-10-17T02:28:25.857Z,0
2022-10-17T02:29:25.628Z,0
2022-10-17T02:30:28.675Z,0
2022-10-17T02:31:25.619Z,0
2022-10-17T02:32:25.785Z,0
2022-10-17T02:33:25.648Z,0
2022-10-17T02:34:25.651Z,0
2022-10-17T02:35:27.251Z,0
2022-10-17T02:36:25.631Z,0
2022-10-17T02:37:25.938Z,0
2022-10-17T02:38:25.654Z,0
2022-10-17T02:39:28.677Z,0
2022-10-17T02:40:25.705Z,0
2022-10-17T02:42:25.654Z,0
2022-10-17T02:43:25.703Z,0
2022-10-17T02:44:25.656Z,0
2022-10-17T02:45:25.895Z,0
2022-10-17T02:46:28.650Z,0
2022-10-17T02:47:25.637Z,0
2022-10-17T02:48:25.655Z,0
2022-10-17T02:49:25.659Z,0
2022-10-17T02:50:26.064Z,0
2022-10-17T02:51:25.659Z,0
2022-10-17T02:52:29.065Z,0
2022-10-17T02:53:25.676Z,0
2022-10-17T02:54:25.672Z,0
2022-10-17T02:55:25.682Z,0
2022-10-17T02:56:25.735Z,0
2022-10-17T02:57:28.506Z,0
2022-10-17T02:58:25.739Z,0
2022-10-17T02:59:25.962Z,0
2022-10-17T03:00:25.724Z,0
2022-10-17T03:01:26.155Z,0
2022-10-17T03:02:25.686Z,0
2022-10-17T03:03:28.734Z,0
2022-10-17T03:04:25.732Z,0
2022-10-17T03:05:25.719Z,0
2022-10-17T03:06:25.737Z,0
2022-10-17T03:07:28.779Z,0
2022-10-17T03:08:29.002Z,0
2022-10-17T03:09:25.687Z,0
2022-10-17T03:10:25.729Z,0
2022-10-17T03:11:25.694Z,0
2022-10-17T03:12:25.879Z,0
2022-10-17T03:13:25.715Z,0
2022-10-17T03:14:28.475Z,0
2022-10-17T03:15:25.702Z,0
2022-10-17T03:16:25.920Z,0
2022-10-17T03:17:25.705Z,0
2022-10-17T03:18:26.772Z,0
2022-10-17T03:19:28.711Z,0
2022-10-17T03:20:25.720Z,0
2022-10-17T03:21:25.717Z,0
2022-10-17T03:22:25.764Z,0
2022-10-17T03:23:25.832Z,0
2022-10-17T03:24:25.746Z,0
2022-10-17T03:25:28.883Z,0
2022-10-17T03:26:25.700Z,0
2022-10-17T03:27:25.729Z,0
2022-10-17T03:28:25.954Z,0
2022-10-17T03:29:25.744Z,0
2022-10-17T03:30:32.124Z,0
2022-10-17T03:31:25.719Z,0
2022-10-17T03:32:25.747Z,0
2022-10-17T03:33:25.723Z,0
2022-10-17T03:34:26.028Z,0
2022-10-17T03:35:25.760Z,0
2022-10-17T03:36:28.846Z,0
2022-10-17T03:37:25.834Z,0
2022-10-17T03:38:25.784Z,0
2022-10-17T03:39:25.723Z,0
2022-10-17T03:40:25.820Z,0
2022-10-17T03:41:28.617Z,0
2022-10-17T03:42:25.751Z,0
2022-10-17T03:43:25.781Z,0
2022-10-17T03:44:25.791Z,0
2022-10-17T03:45:25.842Z,0
2022-10-17T03:46:26.068Z,0
2022-10-17T03:47:26.039Z,0
2022-10-17T03:48:25.758Z,0
2022-10-17T03:49:25.818Z,0
2022-10-17T03:50:25.792Z,0
2022-10-17T03:51:25.752Z,0
2022-10-17T03:52:28.636Z,0
2022-10-17T03:53:25.607Z,0
2022-10-17T03:54:25.780Z,0
2022-10-17T03:55:25.853Z,0
2022-10-17T03:56:25.798Z,0
2022-10-17T03:57:25.804Z,0
2022-10-17T03:58:25.775Z,0
2022-10-17T03:59:25.782Z,0
2022-10-17T04:00:25.847Z,0
2022-10-17T04:01:26.305Z,0
2022-10-17T04:02:25.769Z,0
2022-10-17T04:03:26.496Z,0
2022-10-17T04:04:25.787Z,0
2022-10-17T04:05:25.807Z,0
2022-10-17T04:06:25.783Z,0
2022-10-17T04:08:29.746Z,0
2022-10-17T04:09:25.793Z,0
2022-10-17T04:10:28.836Z,0
2022-10-17T04:11:25.624Z,0
2022-10-17T04:12:25.832Z,0
2022-10-17T04:13:25.838Z,0
2022-10-17T04:14:28.662Z,0
2022-10-17T04:15:25.792Z,0
2022-10-17T04:16:26.975Z,0
2022-10-17T04:17:25.818Z,0
2022-10-17T04:18:28.921Z,0
2022-10-17T04:19:27.021Z,0
2022-10-17T04:20:28.774Z,0
2022-10-17T04:21:25.823Z,0
2022-10-17T04:22:25.829Z,0
2022-10-17T04:23:25.821Z,0
2022-10-17T04:24:28.642Z,0
2022-10-17T04:25:25.807Z,0
2022-10-17T04:26:25.962Z,0
2022-10-17T04:27:25.846Z,0
2022-10-17T04:28:26.634Z,0
2022-10-17T04:29:25.827Z,0
2022-10-17T04:30:28.588Z,0
2022-10-17T04:31:25.854Z,0
2022-10-17T04:32:25.908Z,0
2022-10-17T04:33:25.862Z,0
2022-10-17T04:34:25.960Z,0
2022-10-17T04:35:28.839Z,0
2022-10-17T04:36:25.856Z,0
2022-10-17T04:37:25.828Z,0
2022-10-17T04:38:32.225Z,0
2022-10-17T04:39:25.854Z,0
2022-10-17T04:40:25.880Z,0
2022-10-17T04:41:28.703Z,0
2022-10-17T04:42:25.951Z,0
2022-10-17T04:43:28.971Z,0
2022-10-17T04:44:25.857Z,0
2022-10-17T04:45:25.685Z,0
2022-10-17T04:46:34.902Z,0
2022-10-17T04:47:25.847Z,0
2022-10-17T04:48:25.903Z,0
2022-10-17T04:49:26.104Z,0
2022-10-17T04:50:25.908Z,0
2022-10-17T04:51:33.471Z,0
2022-10-17T04:52:28.890Z,0
2022-10-17T04:53:25.857Z,0
2022-10-17T04:54:25.879Z,0
2022-10-17T04:55:25.856Z,0
2022-10-17T04:56:25.874Z,0
2022-10-17T04:57:28.702Z,0
2022-10-17T04:58:28.677Z,0
2022-10-17T04:59:25.902Z,0
2022-10-17T05:00:25.917Z,0
2022-10-17T05:01:26.687Z,0
2022-10-17T05:02:27.340Z,0
2022-10-17T05:03:25.882Z,0
2022-10-17T05:04:31.870Z,0
2022-10-17T05:05:25.896Z,0
2022-10-17T05:06:26.080Z,0
2022-10-17T05:07:25.877Z,0
2022-10-17T05:08:26.059Z,0
2022-10-17T05:09:25.882Z,0
2022-10-17T05:10:25.887Z,0
2022-10-17T05:11:25.900Z,0
2022-10-17T05:12:25.897Z,0
2022-10-17T05:13:29.037Z,0
2022-10-17T05:14:25.908Z,0
2022-10-17T05:15:28.679Z,0
2022-10-17T05:16:26.129Z,0
2022-10-17T05:17:25.898Z,0
2022-10-17T05:18:25.910Z,0
2022-10-17T05:19:28.666Z,0
2022-10-17T05:20:26.049Z,0
2022-10-17T05:21:26.351Z,0
2022-10-17T05:22:25.942Z,0
2022-10-17T05:23:25.901Z,0
2022-10-17T05:24:28.696Z,0
2022-10-17T05:25:25.946Z,0
2022-10-17T05:26:25.955Z,0
2022-10-17T05:27:25.903Z,0
2022-10-17T05:28:26.223Z,0
2022-10-17T05:29:25.935Z,0
2022-10-17T05:30:29.378Z,0
2022-10-17T05:31:25.987Z,0
2022-10-17T05:32:25.984Z,0
2022-10-17T05:33:25.916Z,0
2022-10-17T05:34:25.936Z,0
2022-10-17T05:35:29.024Z,0
2022-10-17T05:36:25.985Z,0
2022-10-17T05:37:25.941Z,0
2022-10-17T05:38:25.938Z,0
2022-10-17T05:39:25.933Z,0
2022-10-17T05:40:25.963Z,0
2022-10-17T05:41:28.781Z,0
2022-10-17T05:42:26.296Z,0
2022-10-17T05:43:28.597Z,0
2022-10-17T05:44:25.943Z,0
2022-10-17T05:45:25.968Z,0
2022-10-17T05:46:27.120Z,0
2022-10-17T05:47:25.978Z,0
2022-10-17T05:48:25.951Z,0
2022-10-17T05:49:57.043Z,0
2022-10-17T05:50:26.060Z,0
2022-10-17T05:51:26.106Z,0
2022-10-17T05:52:29.479Z,0
2022-10-17T05:53:26.201Z,0
2022-10-17T05:54:25.967Z,0
2022-10-17T05:55:25.984Z,0
2022-10-17T05:56:25.862Z,0
2022-10-17T05:57:29.008Z,0
2022-10-17T05:59:03.173Z,0
2022-10-17T05:59:25.977Z,0
2022-10-17T06:00:25.966Z,0
2022-10-17T06:01:26.067Z,0
2022-10-17T06:02:26.645Z,5
2022-10-17T06:03:29.156Z,5
2022-10-17T06:04:26.051Z,5
2022-10-17T06:05:27.040Z,5
2022-10-17T06:06:26.229Z,5
2022-10-17T06:07:26.055Z,5
2022-10-17T06:08:29.069Z,5
2022-10-17T06:09:25.988Z,5
2022-10-17T06:10:26.008Z,5
2022-10-17T06:11:26.023Z,5
2022-10-17T06:12:26.102Z,5
2022-10-17T06:13:26.031Z,5
2022-10-17T06:14:26.003Z,5
2022-10-17T06:15:27.071Z,5
2022-10-17T06:16:26.020Z,5
2022-10-17T06:17:26.195Z,5
2022-10-17T06:18:26.053Z,5
2022-10-17T06:19:29.127Z,5
2022-10-17T06:20:25.999Z,5
2022-10-17T06:21:26.047Z,5
2022-10-17T06:22:26.088Z,5
2022-10-17T06:23:26.084Z,10
2022-10-17T06:24:26.057Z,15
2022-10-17T06:25:26.041Z,15
2022-10-17T06:26:26.053Z,15
2022-10-17T06:27:26.058Z,10
2022-10-17T06:28:26.187Z,10
2022-10-17T06:29:28.932Z,10
2022-10-17T06:30:26.055Z,10
2022-10-17T06:31:26.113Z,10
2022-10-17T06:32:26.026Z,10
2022-10-17T06:33:26.076Z,10
2022-10-17T06:34:26.232Z,15
2022-10-17T06:35:28.831Z,10
2022-10-17T06:36:26.098Z,10
2022-10-17T06:37:26.283Z,15
2022-10-17T06:38:26.040Z,15
2022-10-17T06:39:26.090Z,10
2022-10-17T06:40:26.067Z,10
2022-10-17T06:41:26.096Z,10
2022-10-17T06:42:26.039Z,15
2022-10-17T06:43:32.470Z,15
2022-10-17T06:44:26.072Z,15
2022-10-17T06:45:26.042Z,15
2022-10-17T06:46:27.201Z,15
2022-10-17T06:47:29.876Z,20
2022-10-17T06:48:26.071Z,20
2022-10-17T06:49:26.071Z,20
2022-10-17T06:50:26.159Z,20
2022-10-17T06:51:29.242Z,15
2022-10-17T06:52:26.111Z,15
2022-10-17T06:53:26.079Z,15
2022-10-17T06:54:26.065Z,20
2022-10-17T06:55:31.776Z,40
2022-10-17T06:56:26.064Z,60
2022-10-17T06:57:29.051Z,60
2022-10-17T06:58:26.069Z,50
2022-10-17T06:59:26.058Z,50
2022-10-17T07:00:26.074Z,65
2022-10-17T07:01:26.105Z,55
2022-10-17T07:02:29.674Z,65
2022-10-17T07:03:26.080Z,70
2022-10-17T07:04:26.074Z,70
2022-10-17T07:05:26.083Z,70
2022-10-17T07:06:26.279Z,70
2022-10-17T07:07:26.228Z,70
2022-10-17T07:08:29.139Z,70
2022-10-17T07:09:26.093Z,70
2022-10-17T07:10:26.103Z,70
2022-10-17T07:11:26.163Z,70
2022-10-17T07:12:26.125Z,70
2022-10-17T07:13:29.176Z,60
2022-10-17T07:14:26.100Z,70
2022-10-17T07:15:26.104Z,70
2022-10-17T07:16:26.094Z,70
2022-10-17T07:17:26.241Z,75
2022-10-17T07:18:29.049Z,80
2022-10-17T07:19:29.031Z,80
2022-10-17T07:20:26.115Z,80
2022-10-17T07:21:26.124Z,75
2022-10-17T07:22:26.206Z,80
2022-10-17T07:23:26.136Z,85
2022-10-17T07:24:28.890Z,80
2022-10-17T07:25:26.112Z,80
2022-10-17T07:26:26.124Z,80
2022-10-17T07:27:33.030Z,75
2022-10-17T07:28:26.330Z,80
2022-10-17T07:29:29.184Z,75
2022-10-17T07:30:26.108Z,75
2022-10-17T07:31:26.132Z,60
2022-10-17T07:32:26.166Z,75
2022-10-17T07:33:26.172Z,70
2022-10-17T07:34:26.153Z,55
2022-10-17T07:35:29.091Z,70
2022-10-17T07:36:26.151Z,70
2022-10-17T07:37:26.179Z,70
2022-10-17T07:38:26.182Z,75
2022-10-17T07:39:26.186Z,75
2022-10-17T07:40:28.893Z,70
2022-10-17T07:41:32.863Z,75
2022-10-17T07:42:26.200Z,70
2022-10-17T07:43:26.234Z,70
2022-10-17T07:44:26.192Z,70
2022-10-17T07:45:26.153Z,65
2022-10-17T07:46:29.271Z,75
2022-10-17T07:47:26.396Z,80
2022-10-17T07:48:26.159Z,75
2022-10-17T07:49:27.304Z,75
2022-10-17T07:50:26.161Z,80
2022-10-17T07:51:32.037Z,80
2022-10-17T07:52:26.391Z,80
2022-10-17T07:53:26.445Z,80
2022-10-17T07:54:26.199Z,80
2022-10-17T07:55:26.424Z,80
2022-10-17T07:56:26.168Z,85
2022-10-17T07:57:27.315Z,85
2022-10-17T07:58:26.169Z,85
2022-10-17T07:59:26.276Z,85
2022-10-17T08:00:26.239Z,80
2022-10-17T08:01:26.338Z,85
2022-10-17T08:02:26.488Z,85
2022-10-17T08:03:26.180Z,85
2022-10-17T08:04:26.177Z,85
2022-10-17T08:05:26.236Z,85
2022-10-17T08:06:26.198Z,85
2022-10-17T08:07:36.266Z,85
2022-10-17T08:08:28.934Z,85
2022-10-17T08:09:26.208Z,85
2022-10-17T08:10:26.259Z,85
2022-10-17T08:11:26.243Z,85
2022-10-17T08:12:26.317Z,85
2022-10-17T08:13:29.205Z,85
2022-10-17T08:14:26.211Z,85
2022-10-17T08:15:31.955Z,85
2022-10-17T08:16:26.216Z,85
2022-10-17T08:17:26.317Z,85
2022-10-17T08:18:26.237Z,85
2022-10-17T08:19:29.156Z,85
2022-10-17T08:20:26.218Z,85
2022-10-17T08:21:26.226Z,85
2022-10-17T08:22:26.392Z,85
2022-10-17T08:23:26.224Z,85
2022-10-17T08:24:29.317Z,85
2022-10-17T08:25:26.225Z,85
2022-10-17T08:26:26.396Z,85
2022-10-17T08:27:26.310Z,85
2022-10-17T08:28:26.441Z,85
2022-10-17T08:29:26.251Z,85
2022-10-17T08:30:29.442Z,85
2022-10-17T08:31:26.291Z,85
2022-10-17T08:32:26.298Z,85
2022-10-17T08:33:26.252Z,85
2022-10-17T08:34:32.096Z,85
2022-10-17T08:35:29.385Z,85
2022-10-17T08:36:26.260Z,85
2022-10-17T08:37:26.399Z,85
2022-10-17T08:38:43.447Z,85
2022-10-17T08:39:26.385Z,80
2022-10-17T08:40:26.316Z,85
2022-10-17T08:41:26.251Z,85
2022-10-17T08:42:27.441Z,85
2022-10-17T08:43:26.286Z,85
2022-10-17T08:44:26.396Z,85
2022-10-17T08:45:26.273Z,85
2022-10-17T08:46:29.484Z,85
2022-10-17T08:47:26.189Z,85
2022-10-17T08:48:26.478Z,90
2022-10-17T08:49:26.422Z,85
2022-10-17T08:50:26.260Z,85
2022-10-17T08:51:26.260Z,80
2022-10-17T08:52:26.297Z,80
2022-10-17T08:53:26.324Z,85
2022-10-17T08:54:26.359Z,80
2022-10-17T08:55:26.293Z,80
2022-10-17T08:56:53.952Z,80
2022-10-17T08:57:26.304Z,80
2022-10-17T08:58:26.326Z,85
2022-10-17T08:59:26.347Z,85
2022-10-17T09:00:26.429Z,80
2022-10-17T09:01:26.375Z,85
2022-10-17T09:02:29.208Z,80
2022-10-17T09:03:26.996Z,80
2022-10-17T09:04:26.756Z,80
2022-10-17T09:05:32.367Z,80
2022-10-17T09:06:26.308Z,80
2022-10-17T09:07:26.428Z,80
2022-10-17T09:08:26.311Z,75
2022-10-17T09:09:26.490Z,75
2022-10-17T09:10:26.315Z,80
2022-10-17T09:11:26.167Z,80
2022-10-17T09:12:26.848Z,80
2022-10-17T09:13:29.447Z,80
2022-10-17T09:14:26.344Z,80
2022-10-17T09:15:26.473Z,80
2022-10-17T09:16:26.317Z,85
2022-10-17T09:17:26.513Z,80
2022-10-17T09:18:31.073Z,85
2022-10-17T09:19:26.241Z,85
2022-10-17T09:20:26.413Z,80
2022-10-17T09:21:29.249Z,85
2022-10-17T09:22:26.355Z,85
2022-10-17T09:23:26.353Z,85
2022-10-17T09:24:29.103Z,85
2022-10-17T09:25:26.350Z,70
2022-10-17T09:26:26.339Z,80
2022-10-17T09:27:26.649Z,80
2022-10-17T09:28:26.634Z,85
2022-10-17T09:29:38.021Z,85
2022-10-17T09:30:53.710Z,90
2022-10-17T09:31:26.383Z,90
2022-10-17T09:32:26.413Z,85
2022-10-17T09:34:00.274Z,85
2022-10-17T09:34:31.955Z,85
2022-10-17T09:35:29.321Z,85
2022-10-17T09:36:26.357Z,85
2022-10-17T09:37:26.355Z,85
2022-10-17T09:38:26.364Z,85
2022-10-17T09:39:27.587Z,85
2022-10-17T09:40:27.572Z,85
2022-10-17T09:41:54.418Z,85
2022-10-17T09:42:26.677Z,80
2022-10-17T09:43:26.444Z,80
2022-10-17T09:44:26.669Z,80
2022-10-17T09:45:29.430Z,75
2022-10-17T09:46:26.434Z,80
2022-10-17T09:47:26.621Z,75
2022-10-17T09:48:26.396Z,70
2022-10-17T09:49:26.657Z,70
2022-10-17T09:50:26.392Z,75
2022-10-17T09:51:35.230Z,75
2022-10-17T09:52:26.560Z,70
2022-10-17T09:53:26.390Z,75
2022-10-17T09:54:26.393Z,75
2022-10-17T09:55:26.395Z,80
2022-10-17T09:56:29.512Z,80
2022-10-17T09:57:29.502Z,75
2022-10-17T09:58:26.585Z,75
2022-10-17T09:59:26.390Z,70
2022-10-17T10:00:26.608Z,70
2022-10-17T10:01:32.180Z,65
2022-10-17T10:02:30.141Z,65
2022-10-17T10:03:26.415Z,70
2022-10-17T10:04:27.653Z,70
2022-10-17T10:05:26.458Z,80
2022-10-17T10:06:26.412Z,80
2022-10-17T10:07:35.796Z,75
2022-10-17T10:08:26.423Z,75
2022-10-17T10:09:26.501Z,75
2022-10-17T10:10:27.145Z,80
2022-10-17T10:11:26.424Z,85
2022-10-17T10:12:26.715Z,80
2022-10-17T10:13:29.428Z,75
2022-10-17T10:14:26.432Z,75
2022-10-17T10:15:26.431Z,65
2022-10-17T10:16:26.457Z,65
2022-10-17T10:17:26.572Z,65
2022-10-17T10:19:26.468Z,50
2022-10-17T10:20:26.436Z,50
2022-10-17T10:21:26.500Z,45
2022-10-17T10:22:26.748Z,55
2022-10-17T10:23:26.526Z,60
2022-10-17T10:24:33.159Z,65
2022-10-17T10:25:26.437Z,65
2022-10-17T10:26:30.014Z,50
2022-10-17T10:27:26.775Z,45
2022-10-17T10:28:26.902Z,45
2022-10-17T10:29:29.470Z,50
2022-10-17T10:30:26.458Z,45
2022-10-17T10:31:26.447Z,45
2022-10-17T10:32:27.123Z,45
2022-10-17T10:33:26.512Z,45
2022-10-17T10:34:26.511Z,45
2022-10-17T10:35:29.342Z,55
2022-10-17T10:36:26.666Z,65
2022-10-17T10:37:26.556Z,60
2022-10-17T10:38:26.584Z,75
2022-10-17T10:39:26.533Z,80
2022-10-17T10:40:29.660Z,75
2022-10-17T10:41:26.489Z,75
2022-10-17T10:42:26.502Z,80
2022-10-17T10:43:26.473Z,80
2022-10-17T10:44:29.597Z,80
2022-10-17T10:45:56.038Z,65
2022-10-17T10:46:29.268Z,70
2022-10-17T10:47:26.751Z,70
2022-10-17T10:48:26.484Z,65
2022-10-17T10:49:26.535Z,60
2022-10-17T10:50:26.557Z,55
2022-10-17T10:51:29.274Z,60
2022-10-17T10:52:26.523Z,60
2022-10-17T10:53:26.550Z,55
2022-10-17T10:54:26.633Z,55
2022-10-17T10:55:26.750Z,55
2022-10-17T10:56:29.318Z,45
2022-10-17T10:57:30.277Z,50
2022-10-17T10:58:26.561Z,50
2022-10-17T10:59:26.509Z,50
2022-10-17T11:00:26.735Z,50
2022-10-17T11:01:26.711Z,45
2022-10-17T11:02:29.625Z,45
2022-10-17T11:03:26.533Z,40
2022-10-17T11:04:26.575Z,40
2022-10-17T11:05:26.602Z,40
2022-10-17T11:06:26.590Z,40
2022-10-17T11:07:26.771Z,40
2022-10-17T11:08:26.536Z,40
2022-10-17T11:09:27.886Z,40
2022-10-17T11:10:26.542Z,40
2022-10-17T11:11:26.566Z,40
2022-10-17T11:12:29.582Z,35
2022-10-17T11:13:29.651Z,35
2022-10-17T11:14:31.088Z,40
2022-10-17T11:15:26.538Z,45
2022-10-17T11:16:26.644Z,50
2022-10-17T11:17:27.008Z,50
2022-10-17T11:18:26.674Z,45
2022-10-17T11:19:26.553Z,40
2022-10-17T11:20:26.558Z,40
2022-10-17T11:21:26.603Z,40
2022-10-17T11:22:32.169Z,40
2022-10-17T11:23:26.569Z,40
2022-10-17T11:24:26.544Z,45
2022-10-17T11:25:26.619Z,40
2022-10-17T11:26:26.549Z,40
2022-10-17T11:27:26.653Z,40
2022-10-17T11:28:26.791Z,45
2022-10-17T11:29:30.933Z,40
2022-10-17T11:30:26.643Z,35
2022-10-17T11:31:26.581Z,40
2022-10-17T11:32:26.861Z,35
2022-10-17T11:33:26.616Z,35
2022-10-17T11:34:26.619Z,35
2022-10-17T11:35:26.584Z,35
2022-10-17T11:36:26.610Z,35
2022-10-17T11:37:26.816Z,30
2022-10-17T11:38:27.669Z,30
2022-10-17T11:39:26.747Z,40
2022-10-17T11:40:34.672Z,35
2022-10-17T11:41:26.600Z,35
2022-10-17T11:42:26.883Z,30
2022-10-17T11:43:30.147Z,30
2022-10-17T11:44:29.441Z,30
2022-10-17T11:45:29.696Z,30
2022-10-17T11:46:26.683Z,25
2022-10-17T11:47:26.687Z,25
2022-10-17T11:48:29.409Z,35
2022-10-17T11:49:30.572Z,30
2022-10-17T11:52:05.433Z,25
2022-10-17T11:52:37.627Z,25
2022-10-17T11:53:15.611Z,30
2022-10-17T11:54:15.060Z,35
2022-10-17T11:55:14.822Z,40
2022-10-17T11:56:14.913Z,40
2022-10-17T11:57:20.791Z,40
2022-10-17T11:58:18.031Z,40
2022-10-17T11:59:14.883Z,35
2022-10-17T12:00:14.813Z,35
2022-10-17T12:01:17.671Z,35
2022-10-17T12:02:14.814Z,40
2022-10-17T12:03:14.829Z,40
2022-10-17T12:04:15.162Z,35
2022-10-17T12:05:14.893Z,35
2022-10-17T12:06:17.735Z,35
2022-10-17T12:07:14.839Z,40
2022-10-17T12:08:14.841Z,40
2022-10-17T12:09:14.930Z,35
2022-10-17T12:10:14.851Z,40
2022-10-17T12:11:14.842Z,40
2022-10-17T12:12:15.062Z,40
2022-10-17T12:13:14.874Z,40
2022-10-17T12:14:15.417Z,40
2022-10-17T12:15:14.881Z,40
2022-10-17T12:16:19.961Z,40
2022-10-17T12:17:20.486Z,40
2022-10-17T12:18:14.854Z,40
2022-10-17T12:19:14.866Z,35
2022-10-17T12:20:14.869Z,30
2022-10-17T12:21:14.914Z,35
2022-10-17T12:22:17.724Z,30
2022-10-17T12:23:15.043Z,25
2022-10-17T12:24:20.495Z,30
2022-10-17T12:25:15.010Z,35
2022-10-17T12:26:14.870Z,35
2022-10-17T12:27:17.935Z,35
2022-10-17T12:28:17.647Z,35
2022-10-17T12:29:15.054Z,40
2022-10-17T12:30:14.884Z,35
2022-10-17T12:31:14.917Z,35
2022-10-17T12:32:14.878Z,35
2022-10-17T12:33:17.729Z,35
2022-10-17T12:34:14.901Z,35
2022-10-17T12:35:14.914Z,35
2022-10-17T12:36:14.880Z,35
2022-10-17T12:37:14.906Z,35
2022-10-17T12:38:15.149Z,35
2022-10-17T12:39:17.958Z,30
2022-10-17T12:40:15.044Z,30
2022-10-17T12:41:15.213Z,35
2022-10-17T12:42:15.713Z,35
2022-10-17T12:43:15.192Z,35
2022-10-17T12:44:19.296Z,35
2022-10-17T12:45:14.903Z,35
2022-10-17T12:46:14.889Z,35
2022-10-17T12:47:15.934Z,35
2022-10-17T12:48:15.383Z,40
2022-10-17T12:49:14.954Z,40
2022-10-17T12:50:18.061Z,35
2022-10-17T12:51:45.126Z,40
2022-10-17T12:52:14.923Z,40
2022-10-17T12:53:20.536Z,35
2022-10-17T12:54:15.161Z,40
2022-10-17T12:55:22.598Z,35
2022-10-17T12:56:14.930Z,40
2022-10-17T12:57:18.273Z,40
2022-10-17T12:58:15.047Z,35
2022-10-17T12:59:15.010Z,35
2022-10-17T13:00:14.962Z,35
2022-10-17T13:01:33.261Z,35
2022-10-17T13:02:14.986Z,30
2022-10-17T13:03:16.014Z,30
2022-10-17T13:04:15.145Z,35
2022-10-17T13:05:14.944Z,35
2022-10-17T13:06:17.810Z,35
2022-10-17T13:07:14.980Z,35
2022-10-17T13:08:14.960Z,35
2022-10-17T13:09:15.004Z,35
2022-10-17T13:10:19.495Z,35
2022-10-17T13:11:16.075Z,35
2022-10-17T13:12:18.499Z,35
2022-10-17T13:13:15.342Z,35
2022-10-17T13:14:14.979Z,35
2022-10-17T13:15:15.046Z,35
2022-10-17T13:16:14.958Z,35
2022-10-17T13:17:17.789Z,35
2022-10-17T13:18:14.974Z,35
2022-10-17T13:19:15.008Z,35
2022-10-17T13:20:15.028Z,30
2022-10-17T13:21:14.968Z,30
2022-10-17T13:22:25.328Z,30
2022-10-17T13:23:17.978Z,30
2022-10-17T13:24:15.020Z,30
2022-10-17T13:25:14.987Z,35
2022-10-17T13:26:15.151Z,35
2022-10-17T13:27:15.039Z,35
2022-10-17T13:28:18.075Z,35
2022-10-17T13:29:15.376Z,35
2022-10-17T13:30:15.013Z,35
2022-10-17T13:31:15.053Z,35
2022-10-17T13:32:15.125Z,35
2022-10-17T13:33:15.005Z,35
2022-10-17T13:34:16.170Z,35
2022-10-17T13:35:15.084Z,35
2022-10-17T13:36:15.028Z,35
2022-10-17T13:37:15.254Z,35
2022-10-17T13:38:15.403Z,35
2022-10-17T13:39:55.937Z,35
2022-10-17T13:41:30.395Z,35
2022-10-17T13:41:48.494Z,35
2022-10-17T13:42:43.729Z,35
2022-10-17T13:43:43.709Z,35
2022-10-17T13:44:48.128Z,35
2022-10-17T13:45:43.699Z,35
2022-10-17T13:46:48.556Z,30
2022-10-17T13:47:49.404Z,35
2022-10-17T13:48:43.727Z,35
2022-10-17T13:49:43.794Z,35
2022-10-17T13:50:53.462Z,35
2022-10-17T13:51:43.738Z,35
2022-10-17T13:52:46.858Z,35
2022-10-17T13:53:43.706Z,35
2022-10-17T13:54:43.720Z,35
2022-10-17T13:55:43.719Z,35
2022-10-17T13:56:43.764Z,35
2022-10-17T13:57:46.894Z,35
2022-10-17T13:58:43.743Z,35
2022-10-17T13:59:43.768Z,35
2022-10-17T14:00:43.967Z,30
2022-10-17T14:01:43.744Z,35
2022-10-17T14:02:43.936Z,35
2022-10-17T14:04:22.479Z,30
2022-10-17T14:05:28.622Z,35
2022-10-17T14:06:44.957Z,35
2022-10-17T14:08:27.770Z,30
2022-10-17T14:08:46.633Z,30
2022-10-17T14:09:43.765Z,35
2022-10-17T14:10:43.737Z,30
2022-10-17T14:11:43.741Z,25
2022-10-17T14:12:50.338Z,30
2022-10-17T14:13:43.772Z,30
2022-10-17T14:15:18.431Z,30
2022-10-17T14:15:43.765Z,25
2022-10-17T14:16:43.744Z,25
2022-10-17T14:17:43.764Z,25
2022-10-17T14:18:45.907Z,25
2022-10-17T14:21:49.676Z,25
2022-10-17T14:23:29.752Z,30
2022-10-17T14:23:59.046Z,30
2022-10-17T14:25:05.011Z,30
2022-10-17T14:25:59.066Z,30
2022-10-17T14:27:01.907Z,30
2022-10-17T14:27:59.059Z,30
2022-10-17T14:28:59.466Z,25
2022-10-17T14:29:59.109Z,25
2022-10-17T14:31:07.148Z,25
2022-10-17T14:32:01.889Z,25
2022-10-17T14:32:59.074Z,25
2022-10-17T14:34:00.491Z,25
2022-10-17T14:35:42.594Z,25
2022-10-17T14:35:59.099Z,25
2022-10-17T14:36:59.079Z,20